createdAt,value
2018-07-13T00:01:59.601Z,46.20
2018-07-13T00:04:27.689Z,36.13
2018-07-13T00:06:56.685Z,41.33
2018-07-13T00:09:24.664Z,40.67
2018-07-13T00:11:52.665Z,29.90
2018-07-13T00:14:21.709Z,27.27
2018-07-13T00:16:50.988Z,40.47
2018-07-13T00:19:19.763Z,36.83
2018-07-13T00:21:47.777Z,40.70
2018-07-13T00:24:15.784Z,35.00
2018-07-13T00:26:43.824Z,32.53
2018-07-13T00:29:12.214Z,41.50
2018-07-13T00:31:41.305Z,41.93
2018-07-13T00:34:09.407Z,30.70
2018-07-13T00:36:37.425Z,33.73
2018-07-13T00:39:08.688Z,34.90
2018-07-13T00:41:36.678Z,33.13
2018-07-13T00:44:05.428Z,27.47
2018-07-13T00:46:33.476Z,47.90
2018-07-13T00:49:01.480Z,34.10
2018-07-13T00:51:29.800Z,38.30
2018-07-13T00:53:57.809Z,32.07
2018-07-13T00:56:25.810Z,32.47
2018-07-13T00:58:53.805Z,39.07
2018-07-13T01:01:22.161Z,37.43
2018-07-13T01:03:50.188Z,38.70
2018-07-13T01:06:18.180Z,34.33
2018-07-13T01:08:46.172Z,35.97
2018-07-13T01:11:14.157Z,40.93
2018-07-13T01:13:42.143Z,34.30
2018-07-13T01:16:10.150Z,38.73
2018-07-13T01:18:38.157Z,35.77
2018-07-13T01:21:06.469Z,36.13
2018-07-13T01:23:34.479Z,32.23
2018-07-13T01:26:02.456Z,30.27
2018-07-13T01:28:30.452Z,48.97
2018-07-13T01:30:58.512Z,46.70
2018-07-13T01:33:26.526Z,35.07
2018-07-13T01:35:54.557Z,40.13
2018-07-13T01:38:22.540Z,31.70
2018-07-13T01:40:50.521Z,37.13
2018-07-13T01:43:18.546Z,30.90
2018-07-13T01:45:46.634Z,36.60
2018-07-13T01:48:14.712Z,33.07
2018-07-13T01:50:42.745Z,31.20
2018-07-13T01:53:10.757Z,33.27
2018-07-13T01:55:38.867Z,29.80
2018-07-13T01:58:06.780Z,39.63
2018-07-13T02:00:34.754Z,29.60
2018-07-13T02:03:02.796Z,39.27
2018-07-13T02:05:30.813Z,29.77
2018-07-13T02:07:59.881Z,39.27
2018-07-13T02:10:28.032Z,25.17
2018-07-13T02:12:56.034Z,40.33
2018-07-13T02:15:24.037Z,38.37
2018-07-13T02:17:52.064Z,34.57
2018-07-13T02:20:20.021Z,29.03
2018-07-13T02:22:48.101Z,31.00
2018-07-13T02:25:16.105Z,33.87
2018-07-13T02:27:44.137Z,29.07
2018-07-13T02:30:12.174Z,28.67
2018-07-13T02:32:40.197Z,33.10
2018-07-13T02:35:08.188Z,34.07
2018-07-13T02:37:36.235Z,31.17
2018-07-13T02:40:04.453Z,35.83
2018-07-13T02:42:32.464Z,28.57
2018-07-13T02:45:00.480Z,37.33
2018-07-13T02:47:28.480Z,30.33
2018-07-13T02:49:56.468Z,43.90
2018-07-13T02:52:24.483Z,43.53
2018-07-13T02:54:52.528Z,46.33
2018-07-13T02:57:20.521Z,43.10
2018-07-13T02:59:48.505Z,56.93
2018-07-13T03:02:16.501Z,49.67
2018-07-13T03:04:44.836Z,65.77
2018-07-13T03:07:12.832Z,55.90
2018-07-13T03:09:40.820Z,62.93
2018-07-13T03:12:09.008Z,59.00
2018-07-13T03:14:37.009Z,61.23
2018-07-13T03:17:05.043Z,70.97
2018-07-13T03:19:33.022Z,54.23
2018-07-13T03:22:01.054Z,50.70
2018-07-13T03:24:29.009Z,54.30
2018-07-13T03:26:57.149Z,60.47
2018-07-13T03:29:25.225Z,56.50
2018-07-13T03:31:53.268Z,60.73
2018-07-13T03:34:21.296Z,65.10
2018-07-13T03:36:49.355Z,57.57
2018-07-13T03:39:18.984Z,58.77
2018-07-13T03:41:46.990Z,59.23
2018-07-13T03:44:14.990Z,57.27
2018-07-13T03:46:43.572Z,63.10
2018-07-13T03:49:11.540Z,64.13
2018-07-13T03:51:39.536Z,61.00
2018-07-13T03:54:07.545Z,49.17
2018-07-13T03:56:34.635Z,46.07
2018-07-13T03:59:02.678Z,41.93
2018-07-13T04:01:30.641Z,38.47
2018-07-13T04:03:58.701Z,53.17
2018-07-13T04:06:26.720Z,41.33
2018-07-13T04:08:54.722Z,41.33
2018-07-13T04:11:22.709Z,35.47
2018-07-13T04:13:50.764Z,36.50
2018-07-13T04:16:18.760Z,30.67
2018-07-13T04:18:46.773Z,37.10
2018-07-13T04:21:14.756Z,30.50
2018-07-13T04:23:42.785Z,38.13
2018-07-13T04:26:10.769Z,44.00
2018-07-13T04:28:38.915Z,35.40
2018-07-13T04:33:44.812Z,34.53
2018-07-13T04:36:12.802Z,33.57
2018-07-13T04:38:40.846Z,35.87
2018-07-13T04:41:08.977Z,27.10
2018-07-13T04:43:36.837Z,27.63
2018-07-13T04:46:04.884Z,24.70
2018-07-13T04:48:34.208Z,22.80
2018-07-13T04:51:00.931Z,32.73
2018-07-13T04:53:28.923Z,25.70
2018-07-13T04:55:57.022Z,31.10
2018-07-13T04:58:26.150Z,27.03
2018-07-13T05:00:54.137Z,27.87
2018-07-13T05:03:22.328Z,21.90
2018-07-13T05:05:50.385Z,25.27
2018-07-13T05:08:18.449Z,25.37
2018-07-13T05:10:46.434Z,22.30
2018-07-13T05:13:14.857Z,27.63
2018-07-13T05:15:42.860Z,23.27
2018-07-13T05:18:10.869Z,24.57
2018-07-13T05:20:38.857Z,29.87
2018-07-13T05:23:06.864Z,32.13
2018-07-13T05:25:34.865Z,29.07
2018-07-13T05:28:02.945Z,20.57
2018-07-13T05:30:31.001Z,27.33
2018-07-13T05:32:59.011Z,30.00
2018-07-13T05:35:26.985Z,24.73
2018-07-13T05:37:55.002Z,24.53
2018-07-13T05:40:22.992Z,26.97
2018-07-13T05:42:51.297Z,25.40
2018-07-13T05:45:19.284Z,24.63
2018-07-13T05:47:47.340Z,23.50
2018-07-13T05:50:15.570Z,31.87
2018-07-13T05:52:43.553Z,27.13
2018-07-13T05:55:11.544Z,34.90
2018-07-13T05:57:39.533Z,33.93
2018-07-13T06:00:07.546Z,32.37
2018-07-13T06:02:35.530Z,30.90
2018-07-13T06:05:03.535Z,31.33
2018-07-13T06:07:31.518Z,33.57
2018-07-13T06:09:59.522Z,41.70
2018-07-13T06:12:27.504Z,37.27
2018-07-13T06:14:55.519Z,35.50
2018-07-13T06:17:23.500Z,26.93
2018-07-13T06:19:51.493Z,34.27
2018-07-13T06:22:19.589Z,33.07
2018-07-13T06:24:48.226Z,24.47
2018-07-13T06:27:16.213Z,34.27
2018-07-13T06:29:44.216Z,37.37
2018-07-13T06:32:12.212Z,26.73
2018-07-13T06:34:40.205Z,27.93
2018-07-13T06:37:08.194Z,37.00
2018-07-13T06:39:36.189Z,38.73
2018-07-13T06:42:04.189Z,30.70
2018-07-13T06:44:32.190Z,38.87
2018-07-13T06:47:00.208Z,30.57
2018-07-13T06:49:28.265Z,30.00
2018-07-13T06:51:56.249Z,38.70
2018-07-13T06:54:24.256Z,36.23
2018-07-13T06:56:52.389Z,36.07
2018-07-13T06:59:20.988Z,30.37
2018-07-13T07:01:49.265Z,29.70
2018-07-13T07:04:35.256Z,35.37
2018-07-13T07:07:05.648Z,23.77
2018-07-13T07:09:33.649Z,30.43
2018-07-13T07:13:15.444Z,32.70
2018-07-13T07:15:43.437Z,30.13
2018-07-13T07:18:11.464Z,37.80
2018-07-13T07:20:39.456Z,33.17
2018-07-13T07:23:07.429Z,30.20
2018-07-13T07:25:35.421Z,27.00
2018-07-13T07:28:03.409Z,29.70
2018-07-13T07:30:31.382Z,32.87
2018-07-13T07:32:59.374Z,37.63
2018-07-13T07:35:27.376Z,34.80
2018-07-13T07:37:55.353Z,42.83
2018-07-13T07:40:23.372Z,40.50
2018-07-13T07:42:51.371Z,41.27
2018-07-13T07:45:19.362Z,36.03
2018-07-13T07:47:47.346Z,41.23
2018-07-13T07:50:15.382Z,33.30
2018-07-13T07:52:43.366Z,33.93
2018-07-13T07:55:11.351Z,38.30
2018-07-13T07:57:39.574Z,39.53
2018-07-13T08:00:07.545Z,43.47
2018-07-13T08:02:35.537Z,39.20
2018-07-13T08:05:03.585Z,47.30
2018-07-13T08:07:31.646Z,41.73
2018-07-13T08:09:59.574Z,45.13
2018-07-13T08:12:27.561Z,42.67
2018-07-13T08:14:56.116Z,51.87
2018-07-13T08:17:24.492Z,54.33
2018-07-13T08:19:52.540Z,46.43
2018-07-13T08:22:22.885Z,47.03
2018-07-13T08:24:54.009Z,46.47
2018-07-13T08:27:23.640Z,37.13
2018-07-13T08:29:53.104Z,33.70
2018-07-13T08:32:21.085Z,29.77
2018-07-13T08:34:49.365Z,32.27
2018-07-13T08:37:17.361Z,32.50
2018-07-13T08:39:46.413Z,29.43
2018-07-13T08:42:14.411Z,27.30
2018-07-13T08:44:42.396Z,33.83
2018-07-13T08:47:10.397Z,26.00
2018-07-13T08:49:38.448Z,20.80
2018-07-13T08:52:06.431Z,27.97
2018-07-13T08:54:34.425Z,24.93
2018-07-13T08:57:02.445Z,26.23
2018-07-13T08:59:30.520Z,25.40
2018-07-13T09:01:58.520Z,28.03
2018-07-13T09:04:26.504Z,21.97
2018-07-13T09:06:54.489Z,24.10
2018-07-13T09:09:22.513Z,22.60
2018-07-13T09:38:31.618Z,22.60
2018-07-13T09:40:59.601Z,25.50
2018-07-13T09:43:28.303Z,22.07
2018-07-13T09:45:56.273Z,28.03
2018-07-13T09:48:24.303Z,21.87
2018-07-13T09:50:52.302Z,21.57
2018-07-13T09:53:20.373Z,22.53
2018-07-13T09:55:53.335Z,27.53
2018-07-13T09:58:32.109Z,23.10
2018-07-13T10:01:06.614Z,24.53
2018-07-13T10:03:34.636Z,23.83
2018-07-13T10:06:03.066Z,24.93
2018-07-13T10:08:31.452Z,24.67
2018-07-13T10:10:59.453Z,30.60
2018-07-13T10:13:27.516Z,21.13
2018-07-13T10:15:55.972Z,22.77
2018-07-13T10:18:25.089Z,25.50
2018-07-13T10:20:53.581Z,27.83
2018-07-13T10:23:22.301Z,20.97
2018-07-13T10:25:54.202Z,23.97
2018-07-13T10:28:22.312Z,24.80
2018-07-13T10:30:50.458Z,26.00
2018-07-13T10:33:19.086Z,25.60
2018-07-13T10:35:47.163Z,28.33
2018-07-13T10:38:15.244Z,27.43
2018-07-13T10:40:43.418Z,33.00
2018-07-13T10:43:11.430Z,27.77
2018-07-13T10:45:39.466Z,23.47
2018-07-13T10:48:07.485Z,27.50
2018-07-13T10:50:35.488Z,24.70
2018-07-13T10:53:03.552Z,26.03
2018-07-13T10:55:31.630Z,22.73
2018-07-13T10:57:59.629Z,33.47
2018-07-13T11:00:27.662Z,27.60
2018-07-13T11:02:55.695Z,28.10
2018-07-13T11:05:23.675Z,27.43
2018-07-13T11:07:51.888Z,27.37
2018-07-13T11:10:19.860Z,25.13
2018-07-13T11:12:47.935Z,33.00
2018-07-13T11:15:15.948Z,24.70
2018-07-13T11:17:43.997Z,27.77
2018-07-13T11:20:12.023Z,25.57
2018-07-13T11:22:40.033Z,36.77
2018-07-13T11:25:08.065Z,25.87
2018-07-13T11:27:36.062Z,28.20
2018-07-13T11:30:05.131Z,27.77
2018-07-13T11:32:33.156Z,21.03
2018-07-13T11:35:01.184Z,18.70
2018-07-13T11:37:29.185Z,16.43
2018-07-13T11:39:57.210Z,21.07
2018-07-13T11:42:25.197Z,19.90
2018-07-13T11:44:53.253Z,21.00
2018-07-13T11:47:21.329Z,22.17
2018-07-13T11:49:49.526Z,22.80
2018-07-13T11:52:17.696Z,20.40
2018-07-13T11:54:46.964Z,21.67
2018-07-13T11:57:14.977Z,18.10
2018-07-13T11:59:43.070Z,22.07
2018-07-13T12:02:11.048Z,21.23
2018-07-13T12:04:39.070Z,13.33
2018-07-13T12:07:07.189Z,16.40
2018-07-13T12:09:35.189Z,19.17
2018-07-13T12:12:04.065Z,23.80
2018-07-13T12:14:32.434Z,18.80
2018-07-13T12:17:00.652Z,19.67
2018-07-13T12:19:28.684Z,24.93
2018-07-13T12:21:56.714Z,15.47
2018-07-13T12:24:24.765Z,14.47
2018-07-13T12:26:52.823Z,20.13
2018-07-13T12:29:20.874Z,13.73
2018-07-13T12:31:48.866Z,15.93
2018-07-13T12:34:16.878Z,11.53
2018-07-13T12:36:44.857Z,15.77
2018-07-13T12:39:12.863Z,15.60
2018-07-13T12:41:40.857Z,17.57
2018-07-13T12:44:08.948Z,10.53
2018-07-13T12:46:36.947Z,23.00
2018-07-13T12:49:04.946Z,21.03
2018-07-13T12:51:32.931Z,13.73
2018-07-13T12:54:01.049Z,11.93
2018-07-13T12:56:29.065Z,12.63
2018-07-13T12:58:57.084Z,19.53
2018-07-13T13:01:25.128Z,13.67
2018-07-13T13:03:53.161Z,11.97
2018-07-13T13:06:21.150Z,14.63
2018-07-13T13:08:49.164Z,15.83
2018-07-13T13:11:17.181Z,13.70
2018-07-13T13:13:45.169Z,15.40
2018-07-13T13:16:14.489Z,13.57
2018-07-13T13:18:42.492Z,17.10
2018-07-13T13:21:10.500Z,18.93
2018-07-13T13:23:38.501Z,14.10
2018-07-13T13:26:06.552Z,12.30
2018-07-13T13:28:34.540Z,15.17
2018-07-13T13:31:03.528Z,13.60
2018-07-13T13:33:31.534Z,13.53
2018-07-13T13:35:59.536Z,9.13
2018-07-13T13:38:27.568Z,19.67
2018-07-13T13:40:55.597Z,24.83
2018-07-13T13:43:23.577Z,18.57
2018-07-13T13:45:51.588Z,9.63
2018-07-13T13:48:19.576Z,11.50
2018-07-13T13:50:47.597Z,14.07
2018-07-13T13:53:15.589Z,9.93
2018-07-13T13:55:43.589Z,11.93
2018-07-13T13:58:11.593Z,13.80
2018-07-13T14:00:39.656Z,9.77
2018-07-13T14:03:07.641Z,16.17
2018-07-13T14:05:35.774Z,14.70
2018-07-13T14:08:03.629Z,11.90
2018-07-13T14:10:31.665Z,9.10
2018-07-13T14:12:59.878Z,11.40
2018-07-13T14:15:27.887Z,11.07
2018-07-13T14:17:55.881Z,9.70
2018-07-13T14:20:23.921Z,15.07
2018-07-13T14:22:51.859Z,6.83
2018-07-13T14:25:19.856Z,10.23
2018-07-13T14:27:47.920Z,9.70
2018-07-13T14:30:15.933Z,15.27
2018-07-13T14:32:43.917Z,12.23
2018-07-13T14:35:11.909Z,11.67
2018-07-13T14:37:39.909Z,8.03
2018-07-13T14:40:07.965Z,11.90
2018-07-13T14:42:35.945Z,7.70
2018-07-13T14:45:03.941Z,5.23
2018-07-13T14:47:31.984Z,14.60
2018-07-13T14:49:59.980Z,6.20
2018-07-13T14:52:27.970Z,8.37
2018-07-13T14:54:55.992Z,11.90
2018-07-13T14:57:23.986Z,8.73
2018-07-13T14:59:51.966Z,8.47
2018-07-13T15:02:20.048Z,6.33
2018-07-13T15:04:48.047Z,5.23
2018-07-13T15:07:16.036Z,33.30
2018-07-13T15:09:44.092Z,8.67
2018-07-13T15:12:12.036Z,11.70
2018-07-13T15:16:09.261Z,11.63
2018-07-13T15:18:37.331Z,12.57
2018-07-13T15:21:05.317Z,4.67
2018-07-13T15:23:33.513Z,13.33
2018-07-13T15:26:01.518Z,9.70
2018-07-13T15:28:29.541Z,16.83
2018-07-13T15:30:57.589Z,7.00
2018-07-13T15:33:25.580Z,7.97
2018-07-13T15:35:53.661Z,10.07
2018-07-13T15:38:21.696Z,17.93
2018-07-13T15:40:49.673Z,11.23
2018-07-13T15:43:17.679Z,13.07
2018-07-13T15:45:45.680Z,8.63
2018-07-13T15:48:13.677Z,19.20
2018-07-13T15:50:41.682Z,6.03
2018-07-13T15:53:09.664Z,8.80
2018-07-13T15:55:43.001Z,11.00
2018-07-13T15:58:11.004Z,10.17
2018-07-13T16:00:39.085Z,8.43
2018-07-13T16:03:07.276Z,11.37
2018-07-13T16:05:35.338Z,12.90
2018-07-13T16:08:03.377Z,11.30
2018-07-13T16:10:32.606Z,11.33
2018-07-13T16:13:00.774Z,9.03
2018-07-13T16:15:28.845Z,6.97
2018-07-13T16:17:57.009Z,15.43
2018-07-13T16:20:25.001Z,8.53
2018-07-13T16:22:53.067Z,11.80
2018-07-13T16:25:21.041Z,12.93
2018-07-13T16:27:49.069Z,11.13
2018-07-13T16:30:17.061Z,9.93
2018-07-13T16:35:18.533Z,7.27
2018-07-13T16:37:46.531Z,7.30
2018-07-13T16:40:14.553Z,10.27
2018-07-13T16:42:42.640Z,10.33
2018-07-13T16:45:10.715Z,9.20
2018-07-13T16:47:38.636Z,12.80
2018-07-13T16:50:06.644Z,7.87
2018-07-13T16:52:35.736Z,12.30
2018-07-13T16:55:03.730Z,10.47
2018-07-13T16:57:31.764Z,6.33
2018-07-13T16:59:59.765Z,6.93
2018-07-13T17:02:27.798Z,6.70
2018-07-13T17:04:55.779Z,16.50
2018-07-13T17:07:23.901Z,10.87
2018-07-13T17:09:52.056Z,9.93
2018-07-13T17:12:20.057Z,12.57
2018-07-13T17:14:48.067Z,13.80
2018-07-13T17:17:16.090Z,16.97
2018-07-13T17:19:44.085Z,7.57
2018-07-13T17:22:12.121Z,9.43
2018-07-13T17:24:40.513Z,14.97
2018-07-13T17:27:08.545Z,9.60
2018-07-13T17:29:36.602Z,6.13
2018-07-13T17:32:04.737Z,11.13
2018-07-13T17:34:32.828Z,8.70
2018-07-13T17:37:00.844Z,9.90
2018-07-13T17:39:28.993Z,9.47
2018-07-13T17:41:57.280Z,9.97
2018-07-13T17:44:25.308Z,11.90
2018-07-13T17:46:53.388Z,17.70
2018-07-13T17:49:21.431Z,14.37
2018-07-13T17:51:49.436Z,11.10
2018-07-13T17:54:17.534Z,13.03
2018-07-13T17:56:45.562Z,10.00
2018-07-13T17:59:13.628Z,8.63
2018-07-13T18:01:41.809Z,8.67
2018-07-13T18:04:09.852Z,10.10
2018-07-13T18:06:37.907Z,9.67
2018-07-13T18:09:06.868Z,10.73
2018-07-13T18:11:34.957Z,11.73
2018-07-13T18:14:02.997Z,11.83
2018-07-13T18:16:31.032Z,14.87
2018-07-13T18:18:59.053Z,10.50
2018-07-13T18:21:27.152Z,12.27
2018-07-13T18:23:55.125Z,10.37
2018-07-13T18:26:23.261Z,12.20
2018-07-13T18:28:51.397Z,11.73
2018-07-13T18:31:19.432Z,7.55
2018-07-13T18:33:47.450Z,7.30
2018-07-13T18:36:15.431Z,8.80
2018-07-13T18:38:44.181Z,6.10
2018-07-13T18:41:12.880Z,6.73
2018-07-13T18:43:40.920Z,8.13
2018-07-13T18:46:08.923Z,6.00
2018-07-13T18:48:36.913Z,9.57
2018-07-13T18:51:04.913Z,6.37
2018-07-13T18:53:32.911Z,8.13
2018-07-13T18:56:00.962Z,5.20
2018-07-13T18:58:28.972Z,9.30
2018-07-13T19:00:57.037Z,6.20
2018-07-13T19:03:25.029Z,5.90
2018-07-13T19:05:53.018Z,6.63
2018-07-13T19:08:21.030Z,5.07
2018-07-13T19:10:49.061Z,5.40
2018-07-13T19:13:17.081Z,6.93
2018-07-13T19:15:45.028Z,12.67
2018-07-13T19:18:13.686Z,5.20
2018-07-13T19:20:41.680Z,7.40
2018-07-13T19:23:09.805Z,8.10
2018-07-13T19:25:37.850Z,9.17
2018-07-13T19:28:05.869Z,9.77
2018-07-13T19:30:33.913Z,9.83
2018-07-13T19:33:01.933Z,7.77
2018-07-13T19:35:30.037Z,10.97
2018-07-13T19:37:58.029Z,5.10
2018-07-13T19:40:26.126Z,7.77
2018-07-13T19:42:54.112Z,6.90
2018-07-13T19:45:22.101Z,28.83
2018-07-13T19:47:51.241Z,8.63
2018-07-13T19:50:19.304Z,10.80
2018-07-13T19:52:47.290Z,9.27
2018-07-13T19:55:15.414Z,7.13
2018-07-13T19:57:43.798Z,10.40
2018-07-13T20:00:11.944Z,7.27
2018-07-13T20:02:39.900Z,7.53
2018-07-13T20:05:07.974Z,9.23
2018-07-13T20:07:36.103Z,8.60
2018-07-13T20:10:04.254Z,7.97
2018-07-13T20:12:32.272Z,7.73
2018-07-13T20:15:00.301Z,12.93
2018-07-13T20:17:28.583Z,12.80
2018-07-13T20:19:56.577Z,9.03
2018-07-13T20:22:24.584Z,11.27
2018-07-13T20:24:52.588Z,11.63
2018-07-13T20:27:20.593Z,11.40
2018-07-13T20:29:48.609Z,11.67
2018-07-13T20:32:16.604Z,8.63
2018-07-13T20:34:44.625Z,13.93
2018-07-13T20:37:12.609Z,10.47
2018-07-13T20:39:40.601Z,6.87
2018-07-13T20:42:08.636Z,11.50
2018-07-13T20:44:36.636Z,8.20
2018-07-13T20:47:05.008Z,6.93
2018-07-13T20:49:33.085Z,9.10
2018-07-13T20:52:01.073Z,6.97
2018-07-13T20:54:29.073Z,14.40
2018-07-13T20:56:57.068Z,10.10
2018-07-13T20:59:25.089Z,9.50
2018-07-13T21:01:53.095Z,9.07
2018-07-13T21:04:21.086Z,7.80
2018-07-13T21:06:49.081Z,15.40
2018-07-13T21:09:17.330Z,7.20
2018-07-13T21:11:45.404Z,8.50
2018-07-13T21:14:13.535Z,13.20
2018-07-13T21:16:41.581Z,11.07
2018-07-13T21:19:09.658Z,12.00
2018-07-13T21:21:37.661Z,6.40
2018-07-13T21:24:05.948Z,7.30
2018-07-13T21:26:33.992Z,17.70
2018-07-13T21:29:01.972Z,10.30
2018-07-13T21:31:30.041Z,6.40
2018-07-13T21:33:58.050Z,8.47
2018-07-13T21:36:26.053Z,5.93
2018-07-13T21:38:54.029Z,8.70
2018-07-13T21:41:22.028Z,6.80
2018-07-13T21:43:50.015Z,8.90
2018-07-13T21:46:18.001Z,8.40
2018-07-13T21:48:46.029Z,6.60
2018-07-13T21:51:14.517Z,11.63
2018-07-13T21:53:42.561Z,10.50
2018-07-13T21:56:10.556Z,6.90
2018-07-13T21:58:38.621Z,11.63
2018-07-13T22:01:07.179Z,7.27
2018-07-13T22:03:35.776Z,7.63
2018-07-13T22:06:04.448Z,8.53
2018-07-13T22:08:33.079Z,7.83
2018-07-13T22:11:01.692Z,8.97
2018-07-13T22:13:31.374Z,10.50
2018-07-13T22:16:00.912Z,13.40
2018-07-13T22:18:29.668Z,7.47
2018-07-13T22:20:57.937Z,8.60
2018-07-13T22:23:26.638Z,9.07
2018-07-13T22:25:54.785Z,10.20
2018-07-13T22:30:55.440Z,8.83
2018-07-13T22:33:24.044Z,16.00
2018-07-13T22:35:52.281Z,9.40
2018-07-13T22:38:20.306Z,12.83
2018-07-13T22:40:48.355Z,10.33
2018-07-13T22:43:16.588Z,15.47
2018-07-13T22:45:44.681Z,10.77
2018-07-13T22:48:12.704Z,7.80
2018-07-13T22:50:40.740Z,8.00
2018-07-13T22:53:08.745Z,12.20
2018-07-13T22:57:02.545Z,8.97
2018-07-13T22:59:30.528Z,8.37
2018-07-13T23:01:58.561Z,12.68
2018-07-13T23:04:28.576Z,11.00
2018-07-13T23:06:56.649Z,11.17
2018-07-13T23:09:24.669Z,10.73
2018-07-13T23:11:52.729Z,10.73
2018-07-13T23:14:20.710Z,10.30
2018-07-13T23:16:48.780Z,9.13
2018-07-13T23:19:16.776Z,12.83
2018-07-13T23:21:44.886Z,10.37
2018-07-13T23:24:12.855Z,8.80
2018-07-13T23:26:40.853Z,11.27
2018-07-13T23:29:10.086Z,18.07
2018-07-13T23:31:38.084Z,13.83
2018-07-13T23:34:06.094Z,9.23
2018-07-13T23:36:34.109Z,10.13
2018-07-13T23:39:02.116Z,14.83
2018-07-13T23:41:30.145Z,11.87
2018-07-13T23:43:58.176Z,12.63
2018-07-13T23:46:26.172Z,9.47
2018-07-13T23:48:54.183Z,8.33
2018-07-13T23:51:22.201Z,14.33
2018-07-13T23:53:50.360Z,8.27
2018-07-13T23:56:18.398Z,11.70
2018-07-13T23:58:46.623Z,7.43
